createdAt,value
2024-03-26T00:02:10.469Z,100272.48
2024-03-26T00:04:38.983Z,100273.59
2024-03-26T00:07:07.564Z,100270.15
2024-03-26T00:09:36.155Z,100266.07
2024-03-26T00:12:04.738Z,100263.39
2024-03-26T00:14:33.215Z,100267.06
2024-03-26T00:17:02.858Z,100257.03
2024-03-26T00:19:31.472Z,100259.76
2024-03-26T00:21:59.924Z,100256.59
2024-03-26T00:24:28.475Z,100256.73
2024-03-26T00:26:56.940Z,100258.44
2024-03-26T00:29:25.232Z,100253.61
2024-03-26T00:31:53.712Z,100258.42
2024-03-26T00:34:22.092Z,100265.10
2024-03-26T00:36:50.368Z,100268.33
2024-03-26T00:39:18.652Z,100271.33
2024-03-26T00:41:48.355Z,100278.98
2024-03-26T00:44:16.746Z,100284.59
2024-03-26T00:46:45.302Z,100290.30
2024-03-26T00:49:13.601Z,100286.41
2024-03-26T00:51:45.584Z,100288.59
2024-03-26T00:54:13.774Z,100295.55
2024-03-26T00:56:43.271Z,100305.44
2024-03-26T00:59:11.727Z,100307.91
2024-03-26T01:01:40.340Z,100305.19
2024-03-26T01:04:08.995Z,100308.84
2024-03-26T01:06:37.438Z,100313.13
2024-03-26T01:09:05.814Z,100312.95
2024-03-26T01:11:34.318Z,100313.04
2024-03-26T01:14:02.687Z,100324.55
2024-03-26T01:16:31.416Z,100330.91
2024-03-26T01:18:59.787Z,100326.60
2024-03-26T01:21:28.587Z,100331.48
2024-03-26T01:23:57.228Z,100329.80
2024-03-26T01:26:25.745Z,100332.77
2024-03-26T01:28:54.138Z,100335.74
2024-03-26T01:31:22.915Z,100333.34
2024-03-26T01:33:51.120Z,100332.20
2024-03-26T01:36:19.784Z,100331.23
2024-03-26T01:38:48.150Z,100330.91
2024-03-26T01:41:16.538Z,100335.09
2024-03-26T01:43:44.874Z,100332.15
2024-03-26T01:46:13.383Z,100334.40
2024-03-26T01:48:42.492Z,100340.23
2024-03-26T01:51:11.732Z,100336.95
2024-03-26T01:53:40.276Z,100340.61
2024-03-26T01:56:09.570Z,100339.89
2024-03-26T01:58:38.359Z,100343.67
2024-03-26T02:01:08.222Z,100347.89
2024-03-26T02:03:36.614Z,100357.80
2024-03-26T02:06:05.325Z,100364.27
2024-03-26T02:08:33.830Z,100364.99
2024-03-26T02:11:02.457Z,100367.79
2024-03-26T02:13:30.972Z,100370.59
2024-03-26T02:15:59.575Z,100370.48
2024-03-26T02:18:27.944Z,100372.61
2024-03-26T02:20:56.192Z,100377.95
2024-03-26T02:23:24.720Z,100377.55
2024-03-26T02:25:53.404Z,100379.68
2024-03-26T02:28:22.004Z,100374.84
2024-03-26T02:30:50.778Z,100378.39
2024-03-26T02:33:19.205Z,100382.27
2024-03-26T02:35:47.623Z,100386.59
2024-03-26T02:38:15.825Z,100385.84
2024-03-26T02:40:44.293Z,100390.53
2024-03-26T02:43:13.188Z,100388.63
2024-03-26T02:45:41.670Z,100386.09
2024-03-26T02:48:09.993Z,100387.38
2024-03-26T02:50:38.545Z,100389.07
2024-03-26T02:53:06.989Z,100394.82
2024-03-26T02:55:35.594Z,100405.98
2024-03-26T02:58:04.445Z,100416.39
2024-03-26T03:00:33.187Z,100414.17
2024-03-26T03:03:01.655Z,100414.73
2024-03-26T03:05:30.134Z,100417.56
2024-03-26T03:07:58.483Z,100429.79
2024-03-26T03:10:27.497Z,100431.03
2024-03-26T03:12:55.892Z,100430.54
2024-03-26T03:15:24.474Z,100432.79
2024-03-26T03:17:52.745Z,100442.22
2024-03-26T03:20:21.336Z,100444.71
2024-03-26T03:22:49.813Z,100444.48
2024-03-26T03:25:18.282Z,100445.55
2024-03-26T03:27:46.677Z,100441.74
2024-03-26T03:30:14.990Z,100441.14
2024-03-26T03:32:43.438Z,100441.98
2024-03-26T03:35:12.271Z,100439.61
2024-03-26T03:37:40.604Z,100445.06
2024-03-26T03:40:09.701Z,100448.95
2024-03-26T03:42:38.175Z,100451.15
2024-03-26T03:45:07.387Z,100450.54
2024-03-26T03:47:35.659Z,100449.90
2024-03-26T03:50:04.657Z,100455.71
2024-03-26T03:52:32.927Z,100455.79
2024-03-26T03:55:01.645Z,100465.64
2024-03-26T03:57:30.056Z,100474.67
2024-03-26T03:59:58.373Z,100476.21
2024-03-26T04:02:26.786Z,100476.25
2024-03-26T04:04:55.029Z,100479.05
2024-03-26T04:07:23.388Z,100482.42
2024-03-26T04:09:55.110Z,100488.65
2024-03-26T04:12:23.652Z,100494.96
2024-03-26T04:14:52.103Z,100499.51
2024-03-26T04:17:20.884Z,100496.70
2024-03-26T04:19:49.053Z,100493.48
2024-03-26T04:22:17.578Z,100508.27
2024-03-26T04:24:46.258Z,100507.77
2024-03-26T04:27:14.631Z,100511.01
2024-03-26T04:29:43.021Z,100516.05
2024-03-26T04:32:11.605Z,100519.83
2024-03-26T04:34:40.388Z,100525.97
2024-03-26T04:37:09.090Z,100530.81
2024-03-26T04:39:37.435Z,100531.22
2024-03-26T04:42:06.219Z,100529.83
2024-03-26T04:44:34.526Z,100534.08
2024-03-26T04:47:04.132Z,100531.86
2024-03-26T04:49:32.409Z,100533.70
2024-03-26T04:52:00.995Z,100537.52
2024-03-26T04:54:30.158Z,100538.45
2024-03-26T04:56:59.111Z,100545.09
2024-03-26T04:59:27.670Z,100548.00
2024-03-26T05:01:56.122Z,100548.84
2024-03-26T05:04:24.806Z,100554.60
2024-03-26T05:06:53.335Z,100564.95
2024-03-26T05:09:21.714Z,100574.40
2024-03-26T05:11:50.423Z,100579.38
2024-03-26T05:14:18.960Z,100580.86
2024-03-26T05:16:47.462Z,100579.96
2024-03-26T05:19:15.803Z,100581.96
2024-03-26T05:21:44.107Z,100595.16
2024-03-26T05:24:12.591Z,100601.70
2024-03-26T05:26:41.473Z,100605.52
2024-03-26T05:29:09.951Z,100609.20
2024-03-26T05:31:38.651Z,100605.17
2024-03-26T05:34:07.196Z,100613.20
2024-03-26T05:36:35.566Z,100616.58
2024-03-26T05:39:05.215Z,100614.25
2024-03-26T05:41:33.805Z,100609.48
2024-03-26T05:44:02.297Z,100606.59
2024-03-26T05:46:33.305Z,100609.98
2024-03-26T05:49:02.334Z,100613.42
2024-03-26T05:51:30.908Z,100616.39
2024-03-26T05:53:59.285Z,100620.29
2024-03-26T05:56:27.767Z,100628.43
2024-03-26T05:58:56.268Z,100637.40
2024-03-26T06:01:24.734Z,100642.85
2024-03-26T06:03:53.284Z,100651.01
2024-03-26T06:06:21.699Z,100654.78
2024-03-26T06:08:50.296Z,100653.92
2024-03-26T06:11:18.637Z,100657.35
2024-03-26T06:13:47.042Z,100663.72
2024-03-26T06:16:15.842Z,100666.36
2024-03-26T06:18:44.472Z,100668.09
2024-03-26T06:21:12.862Z,100672.06
2024-03-26T06:23:42.315Z,100677.89
2024-03-26T06:26:10.740Z,100675.53
2024-03-26T06:28:39.579Z,100681.52
2024-03-26T06:31:07.939Z,100684.23
2024-03-26T06:33:36.189Z,100684.61
2024-03-26T06:36:04.996Z,100686.77
2024-03-26T06:38:33.507Z,100690.70
2024-03-26T06:41:02.395Z,100693.19
2024-03-26T06:43:30.675Z,100691.33
2024-03-26T06:45:59.061Z,100697.18
2024-03-26T06:48:27.735Z,100700.43
2024-03-26T06:50:56.249Z,100700.72
2024-03-26T06:53:25.115Z,100706.52
2024-03-26T06:55:53.496Z,100709.13
2024-03-26T06:58:22.198Z,100708.84
2024-03-26T07:00:51.585Z,100715.21
2024-03-26T07:03:19.793Z,100716.71
2024-03-26T07:05:48.244Z,100718.73
2024-03-26T07:08:16.772Z,100720.58
2024-03-26T07:10:45.134Z,100715.48
2024-03-26T07:13:13.650Z,100711.83
2024-03-26T07:15:41.972Z,100714.33
2024-03-26T07:18:11.534Z,100718.61
2024-03-26T07:20:40.024Z,100717.34
2024-03-26T07:23:08.580Z,100715.50
2024-03-26T07:25:38.044Z,100714.15
2024-03-26T07:28:06.946Z,100720.89
2024-03-26T07:30:35.427Z,100719.30
2024-03-26T07:33:04.062Z,100724.23
2024-03-26T07:35:32.282Z,100723.88
2024-03-26T07:38:00.980Z,100726.09
2024-03-26T07:40:29.861Z,100731.66
2024-03-26T07:42:59.823Z,100735.79
2024-03-26T07:45:32.095Z,100741.19
2024-03-26T07:48:00.868Z,100738.77
2024-03-26T07:50:29.226Z,100729.38
2024-03-26T07:52:57.820Z,100725.39
2024-03-26T07:55:26.444Z,100725.16
2024-03-26T07:57:55.078Z,100728.25
2024-03-26T08:00:23.970Z,100724.30
2024-03-26T08:02:52.159Z,100723.81
2024-03-26T08:05:20.729Z,100723.75
2024-03-26T08:07:49.315Z,100717.23
2024-03-26T08:10:18.729Z,100721.92
2024-03-26T08:12:47.199Z,100720.97
2024-03-26T08:15:15.846Z,100715.61
2024-03-26T08:17:44.271Z,100718.74
2024-03-26T08:20:13.436Z,100719.77
2024-03-26T08:22:41.713Z,100712.79
2024-03-26T08:25:11.227Z,100711.10
2024-03-26T08:27:40.853Z,100707.60
2024-03-26T08:30:11.837Z,100704.73
2024-03-26T08:32:40.379Z,100705.09
2024-03-26T08:35:12.064Z,100704.09
2024-03-26T08:37:40.735Z,100692.95
2024-03-26T08:40:10.094Z,100682.67
2024-03-26T08:42:39.307Z,100681.05
2024-03-26T08:45:11.910Z,100678.77
2024-03-26T08:47:40.825Z,100676.61
2024-03-26T08:50:09.767Z,100678.59
2024-03-26T08:52:38.112Z,100669.43
2024-03-26T08:55:06.494Z,100668.82
2024-03-26T08:57:34.788Z,100669.39
2024-03-26T09:00:10.588Z,100665.99
2024-03-26T09:02:39.276Z,100662.48
2024-03-26T09:05:08.177Z,100656.62
2024-03-26T09:07:37.539Z,100653.73
2024-03-26T09:10:07.473Z,100650.98
2024-03-26T09:12:36.707Z,100652.45
2024-03-26T09:15:06.248Z,100647.06
2024-03-26T09:17:34.983Z,100641.39
2024-03-26T09:20:05.548Z,100638.08
2024-03-26T09:22:34.161Z,100637.02
2024-03-26T09:25:03.796Z,100638.16
2024-03-26T09:27:32.296Z,100635.42
2024-03-26T09:30:00.960Z,100629.48
2024-03-26T09:32:29.898Z,100624.34
2024-03-26T09:34:58.475Z,100632.36
2024-03-26T09:37:27.565Z,100634.46
2024-03-26T09:39:56.660Z,100628.27
2024-03-26T09:42:27.030Z,100626.89
2024-03-26T09:45:05.248Z,100619.35
2024-03-26T09:47:35.929Z,100620.48
2024-03-26T09:50:05.506Z,100621.87
2024-03-26T09:52:39.449Z,100621.30
2024-03-26T09:55:10.967Z,100617.84
2024-03-26T09:57:39.352Z,100619.67
2024-03-26T10:00:08.575Z,100618.54
2024-03-26T10:02:37.021Z,100617.07
2024-03-26T10:05:08.383Z,100618.12
2024-03-26T10:07:37.217Z,100615.70
2024-03-26T10:10:06.351Z,100618.02
2024-03-26T10:12:34.798Z,100621.92
2024-03-26T10:15:04.923Z,100620.98
2024-03-26T10:17:37.915Z,100629.92
2024-03-26T10:20:07.172Z,100633.80
2024-03-26T10:22:35.930Z,100633.14
2024-03-26T10:25:05.908Z,100638.02
2024-03-26T10:27:34.542Z,100639.65
2024-03-26T10:30:09.304Z,100644.23
2024-03-26T10:32:38.313Z,100647.98
2024-03-26T10:35:09.776Z,100647.73
2024-03-26T10:37:39.067Z,100652.80
2024-03-26T10:40:18.371Z,100655.85
2024-03-26T10:42:53.840Z,100661.55
2024-03-26T10:45:37.620Z,100666.27
2024-03-26T10:48:14.191Z,100668.83
2024-03-26T10:50:43.361Z,100672.73
2024-03-26T10:53:13.746Z,100678.70
2024-03-26T10:55:44.580Z,100677.29
2024-03-26T10:58:12.969Z,100681.61
2024-03-26T11:00:44.030Z,100684.29
2024-03-26T11:03:14.535Z,100683.35
2024-03-26T11:05:44.293Z,100680.82
2024-03-26T11:08:19.803Z,100675.07
2024-03-26T11:11:19.686Z,100672.09
2024-03-26T11:13:48.244Z,100667.27
2024-03-26T11:16:43.243Z,100657.50
2024-03-26T11:19:26.175Z,100653.30
2024-03-26T11:21:55.124Z,100651.68
2024-03-26T11:24:37.346Z,100649.20
2024-03-26T11:27:09.308Z,100642.39
2024-03-26T11:29:41.775Z,100642.20
2024-03-26T11:32:10.296Z,100642.08
2024-03-26T11:34:38.714Z,100638.61
2024-03-26T11:37:07.157Z,100639.58
2024-03-26T11:39:37.192Z,100641.30
2024-03-26T11:42:06.559Z,100635.97
2024-03-26T11:44:35.266Z,100633.73
2024-03-26T11:47:04.134Z,100626.94
2024-03-26T11:49:37.247Z,100614.59
2024-03-26T11:52:06.421Z,100603.55
2024-03-26T11:54:35.660Z,100597.75
2024-03-26T11:57:04.537Z,100597.28
2024-03-26T11:59:32.912Z,100590.14
2024-03-26T12:02:01.260Z,100588.96
2024-03-26T12:04:29.676Z,100590.92
2024-03-26T12:06:58.364Z,100598.46
2024-03-26T12:09:26.810Z,100600.84
2024-03-26T12:11:55.435Z,100601.61
2024-03-26T12:14:24.290Z,100601.10
2024-03-26T12:16:53.133Z,100598.59
2024-03-26T12:19:22.242Z,100594.14
2024-03-26T12:21:50.693Z,100587.48
2024-03-26T12:24:19.282Z,100580.55
2024-03-26T12:26:47.597Z,100577.45
2024-03-26T12:29:15.994Z,100576.52
2024-03-26T12:31:45.307Z,100577.05
2024-03-26T12:34:15.056Z,100572.88
2024-03-26T12:36:46.216Z,100570.38
2024-03-26T12:39:14.478Z,100573.02
2024-03-26T12:41:43.068Z,100569.14
2024-03-26T12:44:14.016Z,100571.55
2024-03-26T12:46:43.105Z,100567.52
2024-03-26T12:49:11.487Z,100559.05
2024-03-26T12:51:39.681Z,100555.53
2024-03-26T12:54:09.954Z,100556.68
2024-03-26T12:56:39.323Z,100557.02
2024-03-26T12:59:08.387Z,100556.77
2024-03-26T13:01:36.736Z,100557.39
2024-03-26T13:04:05.137Z,100553.69
2024-03-26T13:06:33.727Z,100545.61
2024-03-26T13:09:02.380Z,100543.48
2024-03-26T13:11:31.377Z,100548.14
2024-03-26T13:14:00.683Z,100543.57
2024-03-26T13:16:30.599Z,100545.89
2024-03-26T13:18:59.212Z,100544.20
2024-03-26T13:21:28.019Z,100548.56
2024-03-26T13:23:56.388Z,100549.90
2024-03-26T13:26:24.974Z,100549.68
2024-03-26T13:28:53.665Z,100550.95
2024-03-26T13:31:22.102Z,100549.88
2024-03-26T13:33:51.550Z,100542.73
2024-03-26T13:36:22.331Z,100537.05
2024-03-26T13:38:50.717Z,100536.91
2024-03-26T13:41:19.136Z,100532.73
2024-03-26T13:43:47.625Z,100528.64
2024-03-26T13:46:16.615Z,100525.42
2024-03-26T13:48:45.166Z,100524.20
2024-03-26T13:51:13.469Z,100524.94
2024-03-26T13:53:41.857Z,100525.79
2024-03-26T13:56:10.652Z,100529.94
2024-03-26T13:58:40.120Z,100533.99
2024-03-26T14:01:08.695Z,100531.30
2024-03-26T14:03:36.900Z,100521.14
2024-03-26T14:06:05.482Z,100516.43
2024-03-26T14:08:34.009Z,100514.69
2024-03-26T14:11:02.264Z,100514.02
2024-03-26T14:13:30.631Z,100517.00
2024-03-26T14:15:58.968Z,100515.91
2024-03-26T14:18:27.226Z,100511.27
2024-03-26T14:21:04.429Z,100509.90
2024-03-26T14:23:32.789Z,100513.41
2024-03-26T14:26:02.141Z,100519.96
2024-03-26T14:28:30.555Z,100522.29
2024-03-26T14:30:59.345Z,100521.40
2024-03-26T14:33:27.679Z,100519.56
2024-03-26T14:35:56.267Z,100524.63
2024-03-26T14:38:24.795Z,100527.17
2024-03-26T14:40:53.186Z,100529.71
2024-03-26T14:43:21.863Z,100535.45
2024-03-26T14:45:50.389Z,100537.30
2024-03-26T14:48:18.930Z,100531.43
2024-03-26T14:50:53.252Z,100530.48
2024-03-26T14:53:24.400Z,100529.29
2024-03-26T14:55:53.082Z,100533.52
2024-03-26T14:58:21.484Z,100535.70
2024-03-26T15:00:50.765Z,100538.88
2024-03-26T15:03:19.756Z,100545.92
2024-03-26T15:05:50.467Z,100541.61
2024-03-26T15:08:19.179Z,100537.96
2024-03-26T15:10:47.663Z,100537.39
2024-03-26T15:13:16.311Z,100536.52
2024-03-26T15:15:44.524Z,100534.14
2024-03-26T15:18:12.825Z,100537.89
2024-03-26T15:20:41.758Z,100543.52
2024-03-26T15:23:10.174Z,100548.33
2024-03-26T15:25:38.561Z,100548.83
2024-03-26T15:28:25.405Z,100548.41
2024-03-26T15:31:25.968Z,100546.21
2024-03-26T15:33:54.548Z,100552.33
2024-03-26T15:36:22.931Z,100556.27
2024-03-26T15:38:51.420Z,100562.05
2024-03-26T15:41:20.041Z,100561.94
2024-03-26T15:43:48.725Z,100559.91
2024-03-26T15:46:18.956Z,100558.91
2024-03-26T15:48:47.434Z,100561.33
2024-03-26T15:51:15.737Z,100558.23
2024-03-26T15:53:44.312Z,100560.13
2024-03-26T15:56:12.878Z,100560.17
2024-03-26T15:58:41.364Z,100556.96
2024-03-26T16:01:09.712Z,100550.81
2024-03-26T16:03:38.330Z,100548.13
2024-03-26T16:06:07.769Z,100552.43
2024-03-26T16:08:36.530Z,100551.70
2024-03-26T16:11:13.121Z,100551.73
2024-03-26T16:13:42.499Z,100558.52
2024-03-26T16:16:11.308Z,100558.52
2024-03-26T16:18:39.841Z,100562.89
2024-03-26T16:21:08.274Z,100564.77
2024-03-26T16:23:36.655Z,100562.94
2024-03-26T16:26:05.231Z,100558.60
2024-03-26T16:28:33.912Z,100556.70
2024-03-26T16:31:03.555Z,100557.05
2024-03-26T16:33:32.206Z,100560.40
2024-03-26T16:36:11.398Z,100561.61
2024-03-26T16:38:41.504Z,100566.55
2024-03-26T16:41:10.247Z,100562.59
2024-03-26T16:43:46.359Z,100565.48
2024-03-26T16:46:21.242Z,100566.77
2024-03-26T16:48:49.830Z,100567.65
2024-03-26T16:51:19.233Z,100566.80
2024-03-26T16:53:47.504Z,100568.10
2024-03-26T16:56:16.196Z,100569.78
2024-03-26T16:58:44.882Z,100573.86
2024-03-26T17:01:14.081Z,100575.92
2024-03-26T17:03:42.369Z,100576.48
2024-03-26T17:06:11.474Z,100574.90
2024-03-26T17:08:40.642Z,100571.49
2024-03-26T17:11:09.139Z,100568.36
2024-03-26T17:13:37.821Z,100565.98
2024-03-26T17:16:07.107Z,100571.96
2024-03-26T17:18:36.150Z,100570.14
2024-03-26T17:21:05.069Z,100577.46
2024-03-26T17:23:33.391Z,100577.33
2024-03-26T17:26:01.982Z,100575.63
2024-03-26T17:28:30.379Z,100576.75
2024-03-26T17:30:58.945Z,100573.41
2024-03-26T17:33:27.435Z,100574.60
2024-03-26T17:35:55.898Z,100575.00
2024-03-26T17:38:24.459Z,100577.96
2024-03-26T17:40:53.896Z,100579.48
2024-03-26T17:43:22.836Z,100582.80
2024-03-26T17:45:52.004Z,100581.42
2024-03-26T17:48:20.476Z,100578.45
2024-03-26T17:50:55.904Z,100578.63
2024-03-26T17:53:29.192Z,100575.14
2024-03-26T17:55:57.603Z,100570.35
2024-03-26T17:58:26.827Z,100571.47
2024-03-26T18:01:05.409Z,100569.43
2024-03-26T18:03:33.638Z,100565.64
2024-03-26T18:06:04.509Z,100565.38
2024-03-26T18:08:33.116Z,100562.84
2024-03-26T18:11:01.904Z,100565.22
2024-03-26T18:13:30.462Z,100559.81
2024-03-26T18:16:03.031Z,100561.50
2024-03-26T18:18:31.319Z,100560.64
2024-03-26T18:21:01.113Z,100554.00
2024-03-26T18:23:29.598Z,100562.10
2024-03-26T18:26:05.188Z,100563.98
2024-03-26T18:28:34.881Z,100567.45
2024-03-26T18:31:06.904Z,100569.86
2024-03-26T18:33:35.412Z,100570.95
2024-03-26T18:36:05.786Z,100568.84
2024-03-26T18:38:36.079Z,100566.93
2024-03-26T18:41:07.140Z,100561.23
2024-03-26T18:43:40.789Z,100562.11
2024-03-26T18:46:14.500Z,100558.70
2024-03-26T18:48:44.242Z,100551.15
2024-03-26T18:51:14.285Z,100552.52
2024-03-26T18:53:43.268Z,100548.83
2024-03-26T18:56:12.881Z,100548.36
2024-03-26T18:58:42.353Z,100550.17
2024-03-26T19:01:18.952Z,100551.44
2024-03-26T19:03:49.285Z,100553.31
2024-03-26T19:06:18.942Z,100553.70
2024-03-26T19:08:47.796Z,100553.73
2024-03-26T19:11:17.085Z,100557.33
2024-03-26T19:13:45.356Z,100556.13
2024-03-26T19:16:14.153Z,100560.51
2024-03-26T19:18:42.633Z,100555.26
2024-03-26T19:21:10.976Z,100561.67
2024-03-26T19:23:39.369Z,100558.27
2024-03-26T19:26:09.413Z,100561.52
2024-03-26T19:28:38.718Z,100562.80
2024-03-26T19:31:10.781Z,100564.10
2024-03-26T19:33:39.366Z,100564.04
2024-03-26T19:36:10.657Z,100565.59
2024-03-26T19:38:39.568Z,100567.84
2024-03-26T19:41:09.355Z,100570.67
2024-03-26T19:43:38.308Z,100567.63
2024-03-26T19:46:08.432Z,100564.44
2024-03-26T19:48:38.356Z,100564.30
2024-03-26T19:51:10.424Z,100565.23
2024-03-26T19:53:39.628Z,100562.33
2024-03-26T19:56:09.013Z,100562.08
2024-03-26T19:58:37.496Z,100565.36
2024-03-26T20:01:08.233Z,100567.58
2024-03-26T20:03:37.704Z,100576.40
2024-03-26T20:06:11.345Z,100580.21
2024-03-26T20:08:44.235Z,100572.15
2024-03-26T20:11:18.830Z,100567.86
2024-03-26T20:13:47.437Z,100564.70
2024-03-26T20:16:22.781Z,100562.04
2024-03-26T20:18:51.154Z,100553.88
2024-03-26T20:21:19.535Z,100540.13
2024-03-26T20:23:48.040Z,100536.37
2024-03-26T20:26:16.712Z,100542.70
2024-03-26T20:28:45.193Z,100547.08
2024-03-26T20:31:14.613Z,100552.71
2024-03-26T20:33:44.420Z,100557.70
2024-03-26T20:36:19.051Z,100565.87
2024-03-26T20:38:48.931Z,100557.23
2024-03-26T20:41:17.093Z,100551.67
2024-03-26T20:43:46.487Z,100553.02
2024-03-26T20:46:15.118Z,100561.54
2024-03-26T20:48:43.699Z,100566.13
2024-03-26T20:51:13.098Z,100561.30
2024-03-26T20:53:41.887Z,100561.94
2024-03-26T20:56:10.142Z,100563.16
2024-03-26T20:58:38.695Z,100557.91
2024-03-26T21:01:14.570Z,100552.80
2024-03-26T21:03:43.168Z,100554.19
2024-03-26T21:06:11.576Z,100562.91
2024-03-26T21:08:40.287Z,100565.36
2024-03-26T21:11:13.422Z,100560.96
2024-03-26T21:13:42.142Z,100551.02
2024-03-26T21:16:12.345Z,100542.25
2024-03-26T21:18:48.990Z,100540.30
2024-03-26T21:21:23.047Z,100545.80
2024-03-26T21:23:51.742Z,100548.56
2024-03-26T21:26:20.118Z,100547.21
2024-03-26T21:28:48.655Z,100546.82
2024-03-26T21:31:18.048Z,100547.37
2024-03-26T21:33:46.377Z,100542.46
2024-03-26T21:36:15.053Z,100543.73
2024-03-26T21:38:43.446Z,100539.11
2024-03-26T21:41:12.127Z,100536.11
2024-03-26T21:43:40.739Z,100539.20
2024-03-26T21:46:09.305Z,100533.77
2024-03-26T21:48:37.790Z,100527.18
2024-03-26T21:51:06.217Z,100529.69
2024-03-26T21:53:34.547Z,100526.63
2024-03-26T21:56:07.879Z,100529.55
2024-03-26T21:58:36.622Z,100535.04
2024-03-26T22:01:07.049Z,100531.56
2024-03-26T22:03:35.347Z,100526.48
2024-03-26T22:06:14.167Z,100522.86
2024-03-26T22:08:43.256Z,100519.98
2024-03-26T22:11:14.482Z,100527.34
2024-03-26T22:13:42.745Z,100529.53
2024-03-26T22:16:11.265Z,100530.20
2024-03-26T22:18:39.599Z,100535.08
2024-03-26T22:21:07.989Z,100529.17
2024-03-26T22:23:36.255Z,100524.05
2024-03-26T22:26:08.172Z,100521.10
2024-03-26T22:28:37.062Z,100522.92
2024-03-26T22:31:06.567Z,100519.70
2024-03-26T22:33:38.165Z,100517.35
2024-03-26T22:36:10.560Z,100516.61
2024-03-26T22:38:38.846Z,100510.85
2024-03-26T22:41:07.310Z,100515.19
2024-03-26T22:43:38.829Z,100516.34
2024-03-26T22:46:07.755Z,100512.90
2024-03-26T22:48:39.753Z,100502.11
2024-03-26T22:51:08.194Z,100501.30
2024-03-26T22:53:36.719Z,100500.41
2024-03-26T22:56:06.914Z,100495.60
2024-03-26T22:58:35.164Z,100493.77
2024-03-26T23:01:05.573Z,100495.92
2024-03-26T23:03:33.993Z,100494.67
2024-03-26T23:06:04.739Z,100490.63
2024-03-26T23:08:33.243Z,100487.31
2024-03-26T23:11:01.723Z,100483.72
2024-03-26T23:13:31.032Z,100481.44
2024-03-26T23:16:06.569Z,100476.55
2024-03-26T23:18:34.968Z,100471.83
2024-03-26T23:21:04.062Z,100471.50
2024-03-26T23:23:32.740Z,100470.02
2024-03-26T23:26:01.328Z,100467.17
2024-03-26T23:28:29.947Z,100464.76
2024-03-26T23:30:58.387Z,100457.23
2024-03-26T23:33:26.637Z,100456.42
2024-03-26T23:35:54.820Z,100457.55
2024-03-26T23:38:23.326Z,100456.14
2024-03-26T23:40:52.730Z,100454.39
2024-03-26T23:43:22.441Z,100447.59
2024-03-26T23:45:51.029Z,100441.58
2024-03-26T23:48:19.303Z,100440.54
2024-03-26T23:50:47.781Z,100436.71
2024-03-26T23:53:16.335Z,100433.66
2024-03-26T23:55:45.469Z,100426.92
2024-03-26T23:58:13.943Z,100423.63
